sensor_id;sensor_type;location;lat;lon;timestamp;temperature;humidity
23560;DHT22;11958;50.836;4.438;2023-11-22T00:01:05;6.40;95.10
23560;DHT22;11958;50.836;4.438;2023-11-22T00:03:31;6.50;95.20
23560;DHT22;11958;50.836;4.438;2023-11-22T00:05:57;6.60;95.10
23560;DHT22;11958;50.836;4.438;2023-11-22T00:08:23;6.70;95.10
23560;DHT22;11958;50.836;4.438;2023-11-22T00:10:49;6.60;94.30
23560;DHT22;11958;50.836;4.438;2023-11-22T00:13:15;6.60;95.00
23560;DHT22;11958;50.836;4.438;2023-11-22T00:15:41;6.60;95.30
23560;DHT22;11958;50.836;4.438;2023-11-22T00:18:06;6.60;95.20
23560;DHT22;11958;50.836;4.438;2023-11-22T00:20:32;6.60;95.10
23560;DHT22;11958;50.836;4.438;2023-11-22T00:22:59;6.50;94.90
23560;DHT22;11958;50.836;4.438;2023-11-22T00:25:25;6.50;95.20
23560;DHT22;11958;50.836;4.438;2023-11-22T00:27:50;6.60;94.90
23560;DHT22;11958;50.836;4.438;2023-11-22T00:30:16;6.60;94.70
23560;DHT22;11958;50.836;4.438;2023-11-22T00:32:41;6.50;95.00
23560;DHT22;11958;50.836;4.438;2023-11-22T00:35:08;6.70;95.10
23560;DHT22;11958;50.836;4.438;2023-11-22T00:37:34;6.70;95.20
23560;DHT22;11958;50.836;4.438;2023-11-22T00:40:03;6.70;95.10
23560;DHT22;11958;50.836;4.438;2023-11-22T00:42:39;6.70;95.00
23560;DHT22;11958;50.836;4.438;2023-11-22T00:45:07;6.60;95.20
23560;DHT22;11958;50.836;4.438;2023-11-22T00:47:33;6.70;95.20
23560;DHT22;11958;50.836;4.438;2023-11-22T00:49:59;6.80;95.30
23560;DHT22;11958;50.836;4.438;2023-11-22T00:52:25;6.80;94.40
23560;DHT22;11958;50.836;4.438;2023-11-22T00:54:51;6.70;94.60
23560;DHT22;11958;50.836;4.438;2023-11-22T00:57:16;6.70;94.80
23560;DHT22;11958;50.836;4.438;2023-11-22T00:59:42;6.90;94.20
23560;DHT22;11958;50.836;4.438;2023-11-22T01:02:09;6.80;94.00
23560;DHT22;11958;50.836;4.438;2023-11-22T01:04:35;6.90;93.70
23560;DHT22;11958;50.836;4.438;2023-11-22T01:07:02;7.00;94.10
23560;DHT22;11958;50.836;4.438;2023-11-22T01:09:30;6.80;93.50
23560;DHT22;11958;50.836;4.438;2023-11-22T01:11:57;6.90;93.70
23560;DHT22;11958;50.836;4.438;2023-11-22T01:14:23;6.90;94.20
23560;DHT22;11958;50.836;4.438;2023-11-22T01:16:49;7.10;93.80
23560;DHT22;11958;50.836;4.438;2023-11-22T01:19:15;6.80;93.00
23560;DHT22;11958;50.836;4.438;2023-11-22T01:21:41;6.70;93.90
23560;DHT22;11958;50.836;4.438;2023-11-22T01:24:07;6.90;93.20
23560;DHT22;11958;50.836;4.438;2023-11-22T01:26:33;7.20;91.90
23560;DHT22;11958;50.836;4.438;2023-11-22T01:28:58;6.90;92.40
23560;DHT22;11958;50.836;4.438;2023-11-22T01:31:26;7.20;92.40
23560;DHT22;11958;50.836;4.438;2023-11-22T01:33:53;7.20;92.20
23560;DHT22;11958;50.836;4.438;2023-11-22T01:36:19;6.90;91.90
23560;DHT22;11958;50.836;4.438;2023-11-22T01:38:45;6.90;93.10
23560;DHT22;11958;50.836;4.438;2023-11-22T01:41:12;6.90;92.40
23560;DHT22;11958;50.836;4.438;2023-11-22T01:43:41;6.90;93.20
23560;DHT22;11958;50.836;4.438;2023-11-22T01:46:08;7.30;92.90
23560;DHT22;11958;50.836;4.438;2023-11-22T01:48:34;7.10;91.80
23560;DHT22;11958;50.836;4.438;2023-11-22T01:51:01;7.20;91.80
23560;DHT22;11958;50.836;4.438;2023-11-22T01:53:27;7.20;91.70
23560;DHT22;11958;50.836;4.438;2023-11-22T01:55:53;6.90;91.70
23560;DHT22;11958;50.836;4.438;2023-11-22T01:58:19;6.90;92.40
23560;DHT22;11958;50.836;4.438;2023-11-22T02:00:53;6.90;92.30
23560;DHT22;11958;50.836;4.438;2023-11-22T02:03:19;6.50;93.00
23560;DHT22;11958;50.836;4.438;2023-11-22T02:05:45;6.60;93.40
23560;DHT22;11958;50.836;4.438;2023-11-22T02:08:11;6.70;92.50
23560;DHT22;11958;50.836;4.438;2023-11-22T02:10:38;6.50;93.10
23560;DHT22;11958;50.836;4.438;2023-11-22T02:13:05;6.20;93.90
23560;DHT22;11958;50.836;4.438;2023-11-22T02:15:36;6.20;94.20
23560;DHT22;11958;50.836;4.438;2023-11-22T02:18:04;6.20;93.90
23560;DHT22;11958;50.836;4.438;2023-11-22T02:20:32;6.40;94.50
23560;DHT22;11958;50.836;4.438;2023-11-22T02:23:07;6.30;93.80
23560;DHT22;11958;50.836;4.438;2023-11-22T02:25:33;6.50;93.30
23560;DHT22;11958;50.836;4.438;2023-11-22T02:27:59;6.30;94.00
23560;DHT22;11958;50.836;4.438;2023-11-22T02:30:25;6.40;93.90
23560;DHT22;11958;50.836;4.438;2023-11-22T02:32:51;6.40;93.80
23560;DHT22;11958;50.836;4.438;2023-11-22T02:35:16;6.30;93.70
23560;DHT22;11958;50.836;4.438;2023-11-22T02:37:43;6.60;93.30
23560;DHT22;11958;50.836;4.438;2023-11-22T02:42:39;6.50;93.10
23560;DHT22;11958;50.836;4.438;2023-11-22T02:45:05;6.40;92.90
23560;DHT22;11958;50.836;4.438;2023-11-22T02:47:31;6.50;93.00
23560;DHT22;11958;50.836;4.438;2023-11-22T02:49:57;6.40;93.60
23560;DHT22;11958;50.836;4.438;2023-11-22T02:52:23;6.70;93.00
23560;DHT22;11958;50.836;4.438;2023-11-22T02:54:52;6.70;92.00
23560;DHT22;11958;50.836;4.438;2023-11-22T02:57:17;6.70;92.50
23560;DHT22;11958;50.836;4.438;2023-11-22T02:59:44;6.40;93.00
23560;DHT22;11958;50.836;4.438;2023-11-22T03:02:10;6.90;92.90
23560;DHT22;11958;50.836;4.438;2023-11-22T03:04:37;7.00;92.30
23560;DHT22;11958;50.836;4.438;2023-11-22T03:07:04;6.80;91.50
23560;DHT22;11958;50.836;4.438;2023-11-22T03:09:34;6.30;91.70
23560;DHT22;11958;50.836;4.438;2023-11-22T03:12:00;6.50;92.30
23560;DHT22;11958;50.836;4.438;2023-11-22T03:14:28;6.50;91.50
23560;DHT22;11958;50.836;4.438;2023-11-22T03:16:54;6.10;92.50
23560;DHT22;11958;50.836;4.438;2023-11-22T03:19:20;6.50;92.60
23560;DHT22;11958;50.836;4.438;2023-11-22T03:21:46;6.50;92.20
23560;DHT22;11958;50.836;4.438;2023-11-22T03:24:11;6.70;92.40
23560;DHT22;11958;50.836;4.438;2023-11-22T03:26:38;6.80;91.70
23560;DHT22;11958;50.836;4.438;2023-11-22T03:29:05;6.80;91.30
23560;DHT22;11958;50.836;4.438;2023-11-22T03:31:30;6.40;90.80
23560;DHT22;11958;50.836;4.438;2023-11-22T03:33:57;6.30;91.90
23560;DHT22;11958;50.836;4.438;2023-11-22T03:36:23;6.30;92.30
23560;DHT22;11958;50.836;4.438;2023-11-22T03:38:49;6.60;91.80
23560;DHT22;11958;50.836;4.438;2023-11-22T03:41:16;6.70;91.30
23560;DHT22;11958;50.836;4.438;2023-11-22T03:43:46;6.80;91.00
23560;DHT22;11958;50.836;4.438;2023-11-22T03:46:12;6.80;91.30
23560;DHT22;11958;50.836;4.438;2023-11-22T03:48:38;6.50;91.30
23560;DHT22;11958;50.836;4.438;2023-11-22T03:51:03;6.60;90.80
23560;DHT22;11958;50.836;4.438;2023-11-22T03:53:29;6.60;91.50
23560;DHT22;11958;50.836;4.438;2023-11-22T03:55:55;6.50;91.30
23560;DHT22;11958;50.836;4.438;2023-11-22T03:58:20;6.50;91.50
23560;DHT22;11958;50.836;4.438;2023-11-22T04:00:47;6.70;91.50
23560;DHT22;11958;50.836;4.438;2023-11-22T04:03:12;6.40;90.60
23560;DHT22;11958;50.836;4.438;2023-11-22T04:05:38;6.70;90.50
23560;DHT22;11958;50.836;4.438;2023-11-22T04:08:04;6.60;91.60
23560;DHT22;11958;50.836;4.438;2023-11-22T04:10:30;6.60;92.40
23560;DHT22;11958;50.836;4.438;2023-11-22T04:12:56;6.50;91.70
23560;DHT22;11958;50.836;4.438;2023-11-22T04:15:22;6.30;91.90
23560;DHT22;11958;50.836;4.438;2023-11-22T04:17:48;6.40;91.70
23560;DHT22;11958;50.836;4.438;2023-11-22T04:20:14;6.70;91.40
23560;DHT22;11958;50.836;4.438;2023-11-22T04:22:44;6.80;90.20
23560;DHT22;11958;50.836;4.438;2023-11-22T04:25:13;6.80;89.90
23560;DHT22;11958;50.836;4.438;2023-11-22T04:27:40;6.70;90.00
23560;DHT22;11958;50.836;4.438;2023-11-22T04:30:07;6.20;90.70
23560;DHT22;11958;50.836;4.438;2023-11-22T04:32:40;6.20;91.60
23560;DHT22;11958;50.836;4.438;2023-11-22T04:35:07;6.50;92.10
23560;DHT22;11958;50.836;4.438;2023-11-22T04:37:33;6.40;91.90
23560;DHT22;11958;50.836;4.438;2023-11-22T04:39:59;6.50;91.70
23560;DHT22;11958;50.836;4.438;2023-11-22T04:42:29;6.70;91.30
23560;DHT22;11958;50.836;4.438;2023-11-22T04:44:55;6.50;91.00
23560;DHT22;11958;50.836;4.438;2023-11-22T04:47:42;6.40;91.50
23560;DHT22;11958;50.836;4.438;2023-11-22T04:50:07;6.20;91.50
23560;DHT22;11958;50.836;4.438;2023-11-22T05:08:27;6.10;91.90
23560;DHT22;11958;50.836;4.438;2023-11-22T05:10:53;5.70;92.40
23560;DHT22;11958;50.836;4.438;2023-11-22T05:13:19;5.70;92.40
23560;DHT22;11958;50.836;4.438;2023-11-22T05:15:44;5.40;92.50
23560;DHT22;11958;50.836;4.438;2023-11-22T05:18:10;5.30;93.70
23560;DHT22;11958;50.836;4.438;2023-11-22T05:20:35;5.50;94.40
23560;DHT22;11958;50.836;4.438;2023-11-22T05:23:01;5.60;94.50
23560;DHT22;11958;50.836;4.438;2023-11-22T05:25:27;5.40;93.80
23560;DHT22;11958;50.836;4.438;2023-11-22T05:27:52;5.70;93.70
23560;DHT22;11958;50.836;4.438;2023-11-22T05:30:18;5.50;93.50
23560;DHT22;11958;50.836;4.438;2023-11-22T05:32:44;5.80;93.70
23560;DHT22;11958;50.836;4.438;2023-11-22T05:35:09;5.80;93.10
23560;DHT22;11958;50.836;4.438;2023-11-22T05:37:36;5.80;93.50
23560;DHT22;11958;50.836;4.438;2023-11-22T05:40:03;5.90;93.00
23560;DHT22;11958;50.836;4.438;2023-11-22T05:42:30;6.10;92.70
23560;DHT22;11958;50.836;4.438;2023-11-22T05:44:56;6.00;92.90
23560;DHT22;11958;50.836;4.438;2023-11-22T05:47:23;5.90;93.30
23560;DHT22;11958;50.836;4.438;2023-11-22T05:49:49;6.10;93.30
23560;DHT22;11958;50.836;4.438;2023-11-22T05:52:14;6.60;91.20
23560;DHT22;11958;50.836;4.438;2023-11-22T05:54:40;6.60;89.70
23560;DHT22;11958;50.836;4.438;2023-11-22T05:57:06;6.50;90.80
23560;DHT22;11958;50.836;4.438;2023-11-22T05:59:31;6.20;90.60
23560;DHT22;11958;50.836;4.438;2023-11-22T06:01:57;6.00;91.00
23560;DHT22;11958;50.836;4.438;2023-11-22T06:04:22;6.10;91.20
23560;DHT22;11958;50.836;4.438;2023-11-22T06:06:48;6.50;91.70
23560;DHT22;11958;50.836;4.438;2023-11-22T06:09:14;6.30;90.90
23560;DHT22;11958;50.836;4.438;2023-11-22T06:11:40;5.90;92.20
23560;DHT22;11958;50.836;4.438;2023-11-22T06:14:05;6.00;92.60
23560;DHT22;11958;50.836;4.438;2023-11-22T06:16:32;6.00;92.70
23560;DHT22;11958;50.836;4.438;2023-11-22T06:18:58;6.10;92.40
23560;DHT22;11958;50.836;4.438;2023-11-22T06:21:23;6.00;92.80
23560;DHT22;11958;50.836;4.438;2023-11-22T06:23:53;6.10;93.00
23560;DHT22;11958;50.836;4.438;2023-11-22T06:26:20;5.80;93.30
23560;DHT22;11958;50.836;4.438;2023-11-22T06:28:46;6.20;93.00
23560;DHT22;11958;50.836;4.438;2023-11-22T06:31:14;6.00;92.60
23560;DHT22;11958;50.836;4.438;2023-11-22T06:33:40;6.20;92.50
23560;DHT22;11958;50.836;4.438;2023-11-22T06:36:06;6.30;92.30
23560;DHT22;11958;50.836;4.438;2023-11-22T06:38:32;6.70;91.20
23560;DHT22;11958;50.836;4.438;2023-11-22T06:41:00;6.50;90.40
23560;DHT22;11958;50.836;4.438;2023-11-22T06:43:28;6.40;91.20
23560;DHT22;11958;50.836;4.438;2023-11-22T06:45:54;6.10;91.90
23560;DHT22;11958;50.836;4.438;2023-11-22T06:48:19;6.20;92.20
23560;DHT22;11958;50.836;4.438;2023-11-22T06:50:45;6.20;92.10
23560;DHT22;11958;50.836;4.438;2023-11-22T06:53:11;6.20;92.30
23560;DHT22;11958;50.836;4.438;2023-11-22T06:55:37;6.50;92.10
23560;DHT22;11958;50.836;4.438;2023-11-22T06:58:04;6.40;91.10
23560;DHT22;11958;50.836;4.438;2023-11-22T07:00:31;6.20;90.70
23560;DHT22;11958;50.836;4.438;2023-11-22T07:02:58;6.10;92.20
23560;DHT22;11958;50.836;4.438;2023-11-22T07:05:23;6.30;92.60
23560;DHT22;11958;50.836;4.438;2023-11-22T07:07:49;6.20;92.30
23560;DHT22;11958;50.836;4.438;2023-11-22T07:10:15;6.30;92.00
23560;DHT22;11958;50.836;4.438;2023-11-22T07:12:41;6.50;91.90
23560;DHT22;11958;50.836;4.438;2023-11-22T07:15:09;6.70;90.70
23560;DHT22;11958;50.836;4.438;2023-11-22T07:17:44;6.30;90.60
23560;DHT22;11958;50.836;4.438;2023-11-22T07:20:10;6.10;91.60
23560;DHT22;11958;50.836;4.438;2023-11-22T07:22:41;6.30;92.40
23560;DHT22;11958;50.836;4.438;2023-11-22T07:25:09;6.30;90.70
23560;DHT22;11958;50.836;4.438;2023-11-22T07:27:49;6.40;90.80
23560;DHT22;11958;50.836;4.438;2023-11-22T07:30:15;5.90;91.20
23560;DHT22;11958;50.836;4.438;2023-11-22T07:32:41;6.00;91.80
23560;DHT22;11958;50.836;4.438;2023-11-22T07:50:35;6.30;90.80
23560;DHT22;11958;50.836;4.438;2023-11-22T07:53:01;6.50;90.20
23560;DHT22;11958;50.836;4.438;2023-11-22T07:55:28;6.40;89.90
23560;DHT22;11958;50.836;4.438;2023-11-22T07:57:53;6.30;89.30
23560;DHT22;11958;50.836;4.438;2023-11-22T08:00:21;6.60;89.50
23560;DHT22;11958;50.836;4.438;2023-11-22T08:02:48;6.40;89.20
23560;DHT22;11958;50.836;4.438;2023-11-22T08:05:14;6.60;89.80
23560;DHT22;11958;50.836;4.438;2023-11-22T08:07:43;6.50;89.30
23560;DHT22;11958;50.836;4.438;2023-11-22T08:10:11;6.70;89.70
23560;DHT22;11958;50.836;4.438;2023-11-22T08:12:47;6.80;89.20
23560;DHT22;11958;50.836;4.438;2023-11-22T08:15:15;6.50;89.20
23560;DHT22;11958;50.836;4.438;2023-11-22T08:17:42;6.50;89.80
23560;DHT22;11958;50.836;4.438;2023-11-22T08:20:11;6.30;90.20
23560;DHT22;11958;50.836;4.438;2023-11-22T08:22:44;6.30;90.20
23560;DHT22;11958;50.836;4.438;2023-11-22T08:25:10;7.00;88.50
23560;DHT22;11958;50.836;4.438;2023-11-22T08:27:41;6.70;89.00
23560;DHT22;11958;50.836;4.438;2023-11-22T08:30:10;6.80;89.00
23560;DHT22;11958;50.836;4.438;2023-11-22T08:32:45;6.70;88.70
23560;DHT22;11958;50.836;4.438;2023-11-22T08:35:35;6.60;88.40
23560;DHT22;11958;50.836;4.438;2023-11-22T08:38:01;6.40;89.10
23560;DHT22;11958;50.836;4.438;2023-11-22T08:40:28;6.40;89.50
23560;DHT22;11958;50.836;4.438;2023-11-22T08:42:54;6.60;88.80
23560;DHT22;11958;50.836;4.438;2023-11-22T08:45:20;6.20;88.30
23560;DHT22;11958;50.836;4.438;2023-11-22T08:47:46;6.50;88.10
23560;DHT22;11958;50.836;4.438;2023-11-22T08:50:12;6.40;88.50
23560;DHT22;11958;50.836;4.438;2023-11-22T08:52:39;6.50;88.80
23560;DHT22;11958;50.836;4.438;2023-11-22T08:55:13;6.70;87.60
23560;DHT22;11958;50.836;4.438;2023-11-22T08:57:40;6.70;87.80
23560;DHT22;11958;50.836;4.438;2023-11-22T09:00:07;6.70;87.90
23560;DHT22;11958;50.836;4.438;2023-11-22T09:02:35;6.40;88.00
23560;DHT22;11958;50.836;4.438;2023-11-22T09:05:02;6.50;88.30
23560;DHT22;11958;50.836;4.438;2023-11-22T09:07:32;6.70;88.20
23560;DHT22;11958;50.836;4.438;2023-11-22T09:09:58;6.80;88.20
23560;DHT22;11958;50.836;4.438;2023-11-22T09:12:24;7.30;87.70
23560;DHT22;11958;50.836;4.438;2023-11-22T09:14:52;7.40;86.40
23560;DHT22;11958;50.836;4.438;2023-11-22T09:17:18;7.50;86.10
23560;DHT22;11958;50.836;4.438;2023-11-22T09:19:44;7.00;86.60
23560;DHT22;11958;50.836;4.438;2023-11-22T09:22:10;7.10;87.20
23560;DHT22;11958;50.836;4.438;2023-11-22T09:24:36;7.00;87.10
23560;DHT22;11958;50.836;4.438;2023-11-22T09:27:03;6.90;87.00
23560;DHT22;11958;50.836;4.438;2023-11-22T09:29:31;7.00;87.00
23560;DHT22;11958;50.836;4.438;2023-11-22T09:31:59;7.20;87.10
23560;DHT22;11958;50.836;4.438;2023-11-22T09:34:26;7.50;86.50
23560;DHT22;11958;50.836;4.438;2023-11-22T09:36:52;7.50;85.10
23560;DHT22;11958;50.836;4.438;2023-11-22T09:39:18;7.40;85.30
23560;DHT22;11958;50.836;4.438;2023-11-22T09:41:47;7.60;85.50
23560;DHT22;11958;50.836;4.438;2023-11-22T09:44:14;7.60;85.70
23560;DHT22;11958;50.836;4.438;2023-11-22T09:46:41;7.90;85.00
23560;DHT22;11958;50.836;4.438;2023-11-22T09:49:08;7.80;83.80
23560;DHT22;11958;50.836;4.438;2023-11-22T09:51:37;7.70;84.00
23560;DHT22;11958;50.836;4.438;2023-11-22T09:54:07;7.80;84.70
23560;DHT22;11958;50.836;4.438;2023-11-22T09:56:37;8.30;83.80
23560;DHT22;11958;50.836;4.438;2023-11-22T09:59:04;8.20;83.00
23560;DHT22;11958;50.836;4.438;2023-11-22T10:01:30;8.00;84.00
23560;DHT22;11958;50.836;4.438;2023-11-22T10:04:03;8.40;84.00
23560;DHT22;11958;50.836;4.438;2023-11-22T10:06:31;8.70;82.70
23560;DHT22;11958;50.836;4.438;2023-11-22T10:09:01;8.60;82.10
23560;DHT22;11958;50.836;4.438;2023-11-22T10:11:27;8.50;82.90
23560;DHT22;11958;50.836;4.438;2023-11-22T10:13:54;8.60;82.70
23560;DHT22;11958;50.836;4.438;2023-11-22T10:16:20;8.80;81.60
23560;DHT22;11958;50.836;4.438;2023-11-22T10:18:47;9.00;81.10
23560;DHT22;11958;50.836;4.438;2023-11-22T10:21:31;8.80;81.50
23560;DHT22;11958;50.836;4.438;2023-11-22T10:24:00;8.40;82.90
23560;DHT22;11958;50.836;4.438;2023-11-22T10:26:30;8.70;82.90
23560;DHT22;11958;50.836;4.438;2023-11-22T10:28:56;9.00;80.10
23560;DHT22;11958;50.836;4.438;2023-11-22T10:31:24;8.60;81.40
23560;DHT22;11958;50.836;4.438;2023-11-22T10:33:50;8.80;80.40
23560;DHT22;11958;50.836;4.438;2023-11-22T10:36:16;8.40;82.00
23560;DHT22;11958;50.836;4.438;2023-11-22T10:38:48;8.50;82.90
23560;DHT22;11958;50.836;4.438;2023-11-22T10:41:17;8.60;82.70
23560;DHT22;11958;50.836;4.438;2023-11-22T10:43:54;8.70;81.90
23560;DHT22;11958;50.836;4.438;2023-11-22T10:46:21;8.80;82.00
23560;DHT22;11958;50.836;4.438;2023-11-22T10:48:50;8.90;82.20
23560;DHT22;11958;50.836;4.438;2023-11-22T10:51:16;8.90;82.30
23560;DHT22;11958;50.836;4.438;2023-11-22T10:53:48;9.00;81.40
23560;DHT22;11958;50.836;4.438;2023-11-22T10:56:16;9.30;81.30
23560;DHT22;11958;50.836;4.438;2023-11-22T10:58:50;9.20;79.90
23560;DHT22;11958;50.836;4.438;2023-11-22T11:01:18;9.30;80.10
23560;DHT22;11958;50.836;4.438;2023-11-22T11:04:16;9.40;79.50
23560;DHT22;11958;50.836;4.438;2023-11-22T11:06:47;9.70;79.30
23560;DHT22;11958;50.836;4.438;2023-11-22T11:09:17;9.90;77.80
23560;DHT22;11958;50.836;4.438;2023-11-22T11:11:46;9.80;78.30
23560;DHT22;11958;50.836;4.438;2023-11-22T11:14:13;9.50;78.90
23560;DHT22;11958;50.836;4.438;2023-11-22T11:16:41;9.50;77.80
23560;DHT22;11958;50.836;4.438;2023-11-22T11:19:12;9.20;78.20
23560;DHT22;11958;50.836;4.438;2023-11-22T11:21:39;9.10;79.10
23560;DHT22;11958;50.836;4.438;2023-11-22T11:24:05;8.90;79.90
23560;DHT22;11958;50.836;4.438;2023-11-22T11:26:34;8.90;80.40
23560;DHT22;11958;50.836;4.438;2023-11-22T11:29:00;8.80;80.30
23560;DHT22;11958;50.836;4.438;2023-11-22T11:32:02;8.80;80.00
23560;DHT22;11958;50.836;4.438;2023-11-22T11:34:50;8.70;80.00
23560;DHT22;11958;50.836;4.438;2023-11-22T11:37:19;8.60;81.20
23560;DHT22;11958;50.836;4.438;2023-11-22T11:39:45;8.30;81.30
23560;DHT22;11958;50.836;4.438;2023-11-22T11:42:11;8.70;80.60
23560;DHT22;11958;50.836;4.438;2023-11-22T11:45:11;8.60;81.80
23560;DHT22;11958;50.836;4.438;2023-11-22T11:47:36;8.30;82.00
23560;DHT22;11958;50.836;4.438;2023-11-22T11:50:02;8.40;82.20
23560;DHT22;11958;50.836;4.438;2023-11-22T11:52:29;8.60;82.30
23560;DHT22;11958;50.836;4.438;2023-11-22T11:54:56;8.70;81.40
23560;DHT22;11958;50.836;4.438;2023-11-22T11:57:23;8.70;80.50
23560;DHT22;11958;50.836;4.438;2023-11-22T11:59:49;8.70;80.50
23560;DHT22;11958;50.836;4.438;2023-11-22T12:02:16;8.90;80.40
23560;DHT22;11958;50.836;4.438;2023-11-22T12:04:42;8.80;80.30
23560;DHT22;11958;50.836;4.438;2023-11-22T12:07:11;8.90;80.70
23560;DHT22;11958;50.836;4.438;2023-11-22T12:09:37;9.30;79.50
23560;DHT22;11958;50.836;4.438;2023-11-22T12:12:03;9.70;78.30
23560;DHT22;11958;50.836;4.438;2023-11-22T12:14:29;9.80;77.40
23560;DHT22;11958;50.836;4.438;2023-11-22T12:16:55;9.60;77.70
23560;DHT22;11958;50.836;4.438;2023-11-22T12:19:25;9.60;78.30
23560;DHT22;11958;50.836;4.438;2023-11-22T12:21:52;9.60;79.40
23560;DHT22;11958;50.836;4.438;2023-11-22T12:24:19;9.50;77.70
23560;DHT22;11958;50.836;4.438;2023-11-22T12:26:46;9.70;76.90
23560;DHT22;11958;50.836;4.438;2023-11-22T12:29:14;9.70;77.90
23560;DHT22;11958;50.836;4.438;2023-11-22T12:31:49;9.50;77.50
23560;DHT22;11958;50.836;4.438;2023-11-22T12:34:20;9.70;76.80
23560;DHT22;11958;50.836;4.438;2023-11-22T12:36:48;9.50;78.20
23560;DHT22;11958;50.836;4.438;2023-11-22T12:39:14;9.40;77.40
23560;DHT22;11958;50.836;4.438;2023-11-22T12:41:47;9.40;78.00
23560;DHT22;11958;50.836;4.438;2023-11-22T12:44:13;9.60;77.40
23560;DHT22;11958;50.836;4.438;2023-11-22T12:46:49;9.50;75.90
23560;DHT22;11958;50.836;4.438;2023-11-22T12:49:18;9.40;77.80
23560;DHT22;11958;50.836;4.438;2023-11-22T12:51:52;9.40;78.50
23560;DHT22;11958;50.836;4.438;2023-11-22T12:54:18;9.30;77.60
23560;DHT22;11958;50.836;4.438;2023-11-22T12:56:50;9.30;77.60
23560;DHT22;11958;50.836;4.438;2023-11-22T12:59:16;9.30;78.20
23560;DHT22;11958;50.836;4.438;2023-11-22T13:01:44;9.70;77.10
23560;DHT22;11958;50.836;4.438;2023-11-22T13:04:09;10.00;75.60
23560;DHT22;11958;50.836;4.438;2023-11-22T13:06:35;9.80;75.30
23560;DHT22;11958;50.836;4.438;2023-11-22T13:09:02;9.70;75.70
23560;DHT22;11958;50.836;4.438;2023-11-22T13:11:28;9.80;76.80
23560;DHT22;11958;50.836;4.438;2023-11-22T13:13:54;9.90;76.00
23560;DHT22;11958;50.836;4.438;2023-11-22T13:16:20;9.70;76.40
23560;DHT22;11958;50.836;4.438;2023-11-22T13:21:16;10.20;75.20
23560;DHT22;11958;50.836;4.438;2023-11-22T13:23:43;10.40;75.60
23560;DHT22;11958;50.836;4.438;2023-11-22T13:26:20;10.30;76.30
23560;DHT22;11958;50.836;4.438;2023-11-22T13:28:46;10.10;74.80
23560;DHT22;11958;50.836;4.438;2023-11-22T13:31:12;9.80;76.00
23560;DHT22;11958;50.836;4.438;2023-11-22T13:33:38;9.40;76.00
23560;DHT22;11958;50.836;4.438;2023-11-22T13:36:04;9.50;77.20
23560;DHT22;11958;50.836;4.438;2023-11-22T13:38:33;9.30;77.00
23560;DHT22;11958;50.836;4.438;2023-11-22T13:40:58;9.10;79.70
23560;DHT22;11958;50.836;4.438;2023-11-22T13:43:24;9.60;79.40
23560;DHT22;11958;50.836;4.438;2023-11-22T13:45:51;9.90;79.90
23560;DHT22;11958;50.836;4.438;2023-11-22T13:48:16;10.00;77.70
23560;DHT22;11958;50.836;4.438;2023-11-22T13:50:42;10.00;78.60
23560;DHT22;11958;50.836;4.438;2023-11-22T13:53:10;10.10;77.20
23560;DHT22;11958;50.836;4.438;2023-11-22T13:55:36;10.30;76.20
23560;DHT22;11958;50.836;4.438;2023-11-22T13:58:04;10.10;77.20
23560;DHT22;11958;50.836;4.438;2023-11-22T14:00:31;9.90;77.60
23560;DHT22;11958;50.836;4.438;2023-11-22T14:03:01;9.70;78.40
23560;DHT22;11958;50.836;4.438;2023-11-22T14:05:32;9.70;77.60
23560;DHT22;11958;50.836;4.438;2023-11-22T14:07:58;9.20;78.60
23560;DHT22;11958;50.836;4.438;2023-11-22T14:10:24;9.00;79.40
23560;DHT22;11958;50.836;4.438;2023-11-22T14:12:50;8.80;79.90
23560;DHT22;11958;50.836;4.438;2023-11-22T14:15:16;8.80;79.80
23560;DHT22;11958;50.836;4.438;2023-11-22T14:17:42;8.80;79.30
23560;DHT22;11958;50.836;4.438;2023-11-22T14:20:12;8.80;80.20
23560;DHT22;11958;50.836;4.438;2023-11-22T14:22:39;8.80;80.00
23560;DHT22;11958;50.836;4.438;2023-11-22T14:25:06;9.00;80.70
23560;DHT22;11958;50.836;4.438;2023-11-22T14:27:43;9.10;81.20
23560;DHT22;11958;50.836;4.438;2023-11-22T14:30:10;9.10;79.80
23560;DHT22;11958;50.836;4.438;2023-11-22T14:32:39;9.20;79.40
23560;DHT22;11958;50.836;4.438;2023-11-22T14:35:09;9.00;79.40
23560;DHT22;11958;50.836;4.438;2023-11-22T14:37:38;9.20;79.80
23560;DHT22;11958;50.836;4.438;2023-11-22T14:40:06;9.10;80.60
23560;DHT22;11958;50.836;4.438;2023-11-22T14:42:42;8.80;80.20
23560;DHT22;11958;50.836;4.438;2023-11-22T14:45:09;8.70;81.00
23560;DHT22;11958;50.836;4.438;2023-11-22T14:47:34;8.70;80.50
23560;DHT22;11958;50.836;4.438;2023-11-22T14:50:02;8.50;81.60
23560;DHT22;11958;50.836;4.438;2023-11-22T14:52:31;8.60;81.00
23560;DHT22;11958;50.836;4.438;2023-11-22T14:54:57;8.70;80.80
23560;DHT22;11958;50.836;4.438;2023-11-22T14:57:25;8.60;81.60
23560;DHT22;11958;50.836;4.438;2023-11-22T14:59:51;8.50;80.80
23560;DHT22;11958;50.836;4.438;2023-11-22T15:02:17;8.70;80.70
23560;DHT22;11958;50.836;4.438;2023-11-22T15:04:44;8.60;80.70
23560;DHT22;11958;50.836;4.438;2023-11-22T15:07:10;8.60;80.60
23560;DHT22;11958;50.836;4.438;2023-11-22T15:09:37;8.70;80.90
23560;DHT22;11958;50.836;4.438;2023-11-22T15:12:03;8.70;80.60
23560;DHT22;11958;50.836;4.438;2023-11-22T15:14:33;8.70;80.70
23560;DHT22;11958;50.836;4.438;2023-11-22T15:17:00;8.60;81.40
23560;DHT22;11958;50.836;4.438;2023-11-22T15:19:30;8.70;81.00
23560;DHT22;11958;50.836;4.438;2023-11-22T15:21:56;8.70;81.70
23560;DHT22;11958;50.836;4.438;2023-11-22T15:24:22;8.60;81.80
23560;DHT22;11958;50.836;4.438;2023-11-22T15:26:48;8.40;82.10
23560;DHT22;11958;50.836;4.438;2023-11-22T15:29:14;8.20;81.60
23560;DHT22;11958;50.836;4.438;2023-11-22T15:31:42;8.20;82.00
23560;DHT22;11958;50.836;4.438;2023-11-22T15:34:08;8.30;82.00
23560;DHT22;11958;50.836;4.438;2023-11-22T15:36:34;8.20;83.50
23560;DHT22;11958;50.836;4.438;2023-11-22T15:39:01;8.20;82.90
23560;DHT22;11958;50.836;4.438;2023-11-22T15:41:26;8.10;82.70
23560;DHT22;11958;50.836;4.438;2023-11-22T15:43:59;8.20;83.30
23560;DHT22;11958;50.836;4.438;2023-11-22T15:46:25;8.20;83.30
23560;DHT22;11958;50.836;4.438;2023-11-22T15:48:51;8.30;82.80
23560;DHT22;11958;50.836;4.438;2023-11-22T15:51:17;8.30;83.00
23560;DHT22;11958;50.836;4.438;2023-11-22T15:53:50;8.20;82.60
23560;DHT22;11958;50.836;4.438;2023-11-22T15:56:16;8.20;83.60
23560;DHT22;11958;50.836;4.438;2023-11-22T15:58:45;8.10;83.40
23560;DHT22;11958;50.836;4.438;2023-11-22T16:01:11;8.10;84.00
23560;DHT22;11958;50.836;4.438;2023-11-22T16:03:38;8.10;84.20
23560;DHT22;11958;50.836;4.438;2023-11-22T16:06:05;8.20;83.30
23560;DHT22;11958;50.836;4.438;2023-11-22T16:08:38;8.00;83.80
23560;DHT22;11958;50.836;4.438;2023-11-22T16:11:22;8.00;84.40
23560;DHT22;11958;50.836;4.438;2023-11-22T16:13:51;8.10;85.00
23560;DHT22;11958;50.836;4.438;2023-11-22T16:16:22;8.20;84.00
23560;DHT22;11958;50.836;4.438;2023-11-22T16:18:47;8.20;84.20
23560;DHT22;11958;50.836;4.438;2023-11-22T16:21:13;8.20;84.90
23560;DHT22;11958;50.836;4.438;2023-11-22T16:23:39;8.40;83.90